sensor_id;sensor_type;location;lat;lon;timestamp;pressure;altitude;pressure_sealevel;temperature;humidity
19795;BME280;10057;59.402;17.866;2023-02-13T00:00:48;102093.50;;;2.78;79.68
19795;BME280;10057;59.402;17.866;2023-02-13T00:03:15;102094.34;;;2.77;79.72
19795;BME280;10057;59.402;17.866;2023-02-13T00:05:41;102096.06;;;2.75;79.99
19795;BME280;10057;59.402;17.866;2023-02-13T00:08:08;102103.06;;;2.74;79.84
19795;BME280;10057;59.402;17.866;2023-02-13T00:10:36;102090.78;;;2.73;79.46
19795;BME280;10057;59.402;17.866;2023-02-13T00:13:05;102101.25;;;2.73;79.76
19795;BME280;10057;59.402;17.866;2023-02-13T00:15:31;102091.69;;;2.74;80.05
19795;BME280;10057;59.402;17.866;2023-02-13T00:18:00;102092.56;;;2.74;79.68
19795;BME280;10057;59.402;17.866;2023-02-13T00:20:27;102087.34;;;2.76;79.90
19795;BME280;10057;59.402;17.866;2023-02-13T00:22:54;102090.00;;;2.77;79.90
19795;BME280;10057;59.402;17.866;2023-02-13T00:25:20;102093.50;;;2.78;79.83
19795;BME280;10057;59.402;17.866;2023-02-13T00:27:50;102087.38;;;2.79;79.87
19795;BME280;10057;59.402;17.866;2023-02-13T00:30:16;102090.88;;;2.79;79.78
19795;BME280;10057;59.402;17.866;2023-02-13T00:32:43;102079.53;;;2.77;79.67
19795;BME280;10057;59.402;17.866;2023-02-13T00:35:10;102084.75;;;2.77;79.82
19795;BME280;10057;59.402;17.866;2023-02-13T00:37:37;102084.75;;;2.77;79.90
19795;BME280;10057;59.402;17.866;2023-02-13T00:40:04;102076.91;;;2.77;79.67
19795;BME280;10057;59.402;17.866;2023-02-13T00:42:31;102068.13;;;2.75;79.86
19795;BME280;10057;59.402;17.866;2023-02-13T00:44:57;102058.50;;;2.74;79.67
19795;BME280;10057;59.402;17.866;2023-02-13T00:47:24;102060.25;;;2.74;79.59
19795;BME280;10057;59.402;17.866;2023-02-13T00:49:51;102059.34;;;2.73;79.63
19795;BME280;10057;59.402;17.866;2023-02-13T00:52:17;102065.44;;;2.72;79.34
19795;BME280;10057;59.402;17.866;2023-02-13T00:54:44;102063.69;;;2.71;79.56
19795;BME280;10057;59.402;17.866;2023-02-13T00:57:12;102059.31;;;2.70;79.77
19795;BME280;10057;59.402;17.866;2023-02-13T00:59:39;102055.78;;;2.68;79.63
19795;BME280;10057;59.402;17.866;2023-02-13T01:02:06;102054.84;;;2.66;79.68
19795;BME280;10057;59.402;17.866;2023-02-13T01:04:32;102052.19;;;2.63;79.52
19795;BME280;10057;59.402;17.866;2023-02-13T01:06:59;102057.41;;;2.61;79.39
19795;BME280;10057;59.402;17.866;2023-02-13T01:09:26;102055.66;;;2.60;79.60
19795;BME280;10057;59.402;17.866;2023-02-13T01:11:52;102057.34;;;2.58;79.72
19795;BME280;10057;59.402;17.866;2023-02-13T01:14:19;102060.84;;;2.59;79.54
19795;BME280;10057;59.402;17.866;2023-02-13T01:16:46;102052.09;;;2.57;79.39
19795;BME280;10057;59.402;17.866;2023-02-13T01:19:13;102053.81;;;2.55;79.47
19795;BME280;10057;59.402;17.866;2023-02-13T01:21:41;102056.41;;;2.53;79.84
19795;BME280;10057;59.402;17.866;2023-02-13T01:24:08;102048.50;;;2.50;79.68
19795;BME280;10057;59.402;17.866;2023-02-13T01:26:35;102044.09;;;2.49;79.46
19795;BME280;10057;59.402;17.866;2023-02-13T01:29:02;102040.59;;;2.47;79.49
19795;BME280;10057;59.402;17.866;2023-02-13T01:31:28;102048.38;;;2.44;79.59
19795;BME280;10057;59.402;17.866;2023-02-13T01:33:56;102045.72;;;2.41;79.73
19795;BME280;10057;59.402;17.866;2023-02-13T01:36:24;102040.47;;;2.40;79.54
19795;BME280;10057;59.402;17.866;2023-02-13T01:38:52;102041.28;;;2.38;79.69
19795;BME280;10057;59.402;17.866;2023-02-13T01:41:20;102038.69;;;2.38;80.04
19795;BME280;10057;59.402;17.866;2023-02-13T01:43:49;102037.78;;;2.36;80.06
19795;BME280;10057;59.402;17.866;2023-02-13T01:46:31;102033.44;;;2.37;79.88
19795;BME280;10057;59.402;17.866;2023-02-13T01:49:09;102029.00;;;2.34;80.00
19795;BME280;10057;59.402;17.866;2023-02-13T01:51:38;102020.28;;;2.35;80.01
19795;BME280;10057;59.402;17.866;2023-02-13T01:54:15;102015.97;;;2.36;79.65
19795;BME280;10057;59.402;17.866;2023-02-13T01:56:48;102029.06;;;2.37;80.20
19795;BME280;10057;59.402;17.866;2023-02-13T01:59:24;102022.97;;;2.38;79.92
19795;BME280;10057;59.402;17.866;2023-02-13T02:01:53;102029.13;;;2.41;79.82
19795;BME280;10057;59.402;17.866;2023-02-13T02:04:29;102039.59;;;2.41;80.04
19795;BME280;10057;59.402;17.866;2023-02-13T02:07:14;102026.50;;;2.41;79.78
19795;BME280;10057;59.402;17.866;2023-02-13T02:09:44;102032.59;;;2.40;79.65
19795;BME280;10057;59.402;17.866;2023-02-13T02:12:25;102036.97;;;2.41;80.03
19795;BME280;10057;59.402;17.866;2023-02-13T02:14:54;102034.34;;;2.41;79.81
19795;BME280;10057;59.402;17.866;2023-02-13T02:17:24;102032.63;;;2.41;80.16
19795;BME280;10057;59.402;17.866;2023-02-13T02:28:43;102018.66;;;2.42;80.13
19795;BME280;10057;59.402;17.866;2023-02-13T02:42:20;102026.47;;;2.39;79.87
19795;BME280;10057;59.402;17.866;2023-02-13T02:47:53;102034.34;;;2.41;80.46
19795;BME280;10057;59.402;17.866;2023-02-13T02:50:55;102037.00;;;2.42;80.16
19795;BME280;10057;59.402;17.866;2023-02-13T02:53:44;102042.28;;;2.44;80.09
19795;BME280;10057;59.402;17.866;2023-02-13T02:56:39;102046.66;;;2.45;79.91
19795;BME280;10057;59.402;17.866;2023-02-13T02:59:13;102041.41;;;2.43;79.93
19795;BME280;10057;59.402;17.866;2023-02-13T03:02:01;102038.78;;;2.45;80.27
19795;BME280;10057;59.402;17.866;2023-02-13T03:04:50;102042.34;;;2.48;80.26
19795;BME280;10057;59.402;17.866;2023-02-13T03:07:37;102040.59;;;2.49;80.14
19795;BME280;10057;59.402;17.866;2023-02-13T03:10:10;102041.47;;;2.49;80.42
19795;BME280;10057;59.402;17.866;2023-02-13T03:13:13;102038.84;;;2.49;80.03
19795;BME280;10057;59.402;17.866;2023-02-13T03:15:53;102039.75;;;2.50;80.21
19795;BME280;10057;59.402;17.866;2023-02-13T03:18:44;102031.91;;;2.51;80.42
19795;BME280;10057;59.402;17.866;2023-02-13T03:21:49;102030.16;;;2.52;80.33
19795;BME280;10057;59.402;17.866;2023-02-13T03:29:48;102017.16;;;2.58;80.42
19795;BME280;10057;59.402;17.866;2023-02-13T03:32:59;102019.81;;;2.59;79.92
19795;BME280;10057;59.402;17.866;2023-02-13T03:35:49;102025.94;;;2.60;80.44
19795;BME280;10057;59.402;17.866;2023-02-13T03:38:46;102020.72;;;2.60;80.00
19795;BME280;10057;59.402;17.866;2023-02-13T03:41:22;102023.28;;;2.58;79.90
19795;BME280;10057;59.402;17.866;2023-02-13T03:46:44;102006.69;;;2.58;80.20
19795;BME280;10057;59.402;17.866;2023-02-13T03:49:44;102005.81;;;2.57;80.47
19795;BME280;10057;59.402;17.866;2023-02-13T03:52:50;102002.38;;;2.60;80.42
19795;BME280;10057;59.402;17.866;2023-02-13T03:55:24;102009.31;;;2.59;80.32
19795;BME280;10057;59.402;17.866;2023-02-13T03:58:16;102005.81;;;2.59;80.09
19795;BME280;10057;59.402;17.866;2023-02-13T04:01:05;102001.47;;;2.59;80.07
19795;BME280;10057;59.402;17.866;2023-02-13T04:06:32;102008.41;;;2.56;80.10
19795;BME280;10057;59.402;17.866;2023-02-13T04:09:00;102009.25;;;2.55;80.42
19795;BME280;10057;59.402;17.866;2023-02-13T04:14:12;102004.03;;;2.55;80.08
19795;BME280;10057;59.402;17.866;2023-02-13T04:16:44;101999.66;;;2.55;80.42
19795;BME280;10057;59.402;17.866;2023-02-13T04:19:14;102008.41;;;2.56;80.39
19795;BME280;10057;59.402;17.866;2023-02-13T04:21:41;102009.31;;;2.56;80.34
19795;BME280;10057;59.402;17.866;2023-02-13T04:24:08;102004.94;;;2.57;80.27
19795;BME280;10057;59.402;17.866;2023-02-13T04:26:40;102001.44;;;2.56;80.37
19795;BME280;10057;59.402;17.866;2023-02-13T04:29:08;101997.94;;;2.57;80.21
19795;BME280;10057;59.402;17.866;2023-02-13T04:31:35;101993.59;;;2.58;80.20
19795;BME280;10057;59.402;17.866;2023-02-13T04:34:02;102001.50;;;2.61;80.15
19795;BME280;10057;59.402;17.866;2023-02-13T04:36:29;102001.56;;;2.64;80.50
19795;BME280;10057;59.402;17.866;2023-02-13T04:38:55;102008.56;;;2.65;80.23
19795;BME280;10057;59.402;17.866;2023-02-13T04:41:22;102004.19;;;2.66;80.29
19795;BME280;10057;59.402;17.866;2023-02-13T04:43:49;102002.44;;;2.65;80.38
19795;BME280;10057;59.402;17.866;2023-02-13T04:46:17;101994.56;;;2.66;80.18
19795;BME280;10057;59.402;17.866;2023-02-13T04:48:44;102004.22;;;2.67;80.24
19795;BME280;10057;59.402;17.866;2023-02-13T04:51:11;102009.47;;;2.69;80.07
19795;BME280;10057;59.402;17.866;2023-02-13T04:53:38;102006.91;;;2.70;80.49
19795;BME280;10057;59.402;17.866;2023-02-13T04:56:05;102002.53;;;2.71;80.07
19795;BME280;10057;59.402;17.866;2023-02-13T04:58:31;102003.41;;;2.71;80.01
19795;BME280;10057;59.402;17.866;2023-02-13T05:00:58;101995.59;;;2.74;80.22
19795;BME280;10057;59.402;17.866;2023-02-13T05:03:25;101990.34;;;2.76;80.30
19795;BME280;10057;59.402;17.866;2023-02-13T05:05:52;101991.25;;;2.76;79.88
19795;BME280;10057;59.402;17.866;2023-02-13T05:08:18;101991.22;;;2.75;79.88
19795;BME280;10057;59.402;17.866;2023-02-13T05:10:45;101985.09;;;2.74;80.10
19795;BME280;10057;59.402;17.866;2023-02-13T05:13:12;102002.59;;;2.75;79.89
19795;BME280;10057;59.402;17.866;2023-02-13T05:15:39;102008.69;;;2.74;79.95
19795;BME280;10057;59.402;17.866;2023-02-13T05:18:07;102017.41;;;2.73;79.97
19795;BME280;10057;59.402;17.866;2023-02-13T05:20:34;102016.53;;;2.73;80.09
19795;BME280;10057;59.402;17.866;2023-02-13T05:23:00;102001.66;;;2.73;80.39
19795;BME280;10057;59.402;17.866;2023-02-13T05:25:46;101994.69;;;2.72;80.08
19795;BME280;10057;59.402;17.866;2023-02-13T05:28:13;101992.06;;;2.72;79.94
19795;BME280;10057;59.402;17.866;2023-02-13T05:30:58;102007.78;;;2.71;80.15
19795;BME280;10057;59.402;17.866;2023-02-13T05:33:26;102014.75;;;2.70;80.00
19795;BME280;10057;59.402;17.866;2023-02-13T05:35:53;102021.72;;;2.70;80.33
19795;BME280;10057;59.402;17.866;2023-02-13T05:38:19;102027.88;;;2.70;80.24
19795;BME280;10057;59.402;17.866;2023-02-13T05:40:46;102035.69;;;2.69;79.85
19795;BME280;10057;59.402;17.866;2023-02-13T05:43:13;102032.19;;;2.68;79.87
19795;BME280;10057;59.402;17.866;2023-02-13T05:45:39;102038.28;;;2.67;79.83
19795;BME280;10057;59.402;17.866;2023-02-13T05:48:06;102047.00;;;2.66;79.77
19795;BME280;10057;59.402;17.866;2023-02-13T05:50:33;102044.31;;;2.63;79.83
19795;BME280;10057;59.402;17.866;2023-02-13T05:52:59;102046.06;;;2.63;79.85
19795;BME280;10057;59.402;17.866;2023-02-13T05:55:26;102049.53;;;2.61;79.93
19795;BME280;10057;59.402;17.866;2023-02-13T05:57:56;102052.16;;;2.60;79.98
19795;BME280;10057;59.402;17.866;2023-02-13T06:00:24;102066.09;;;2.57;79.99
19795;BME280;10057;59.402;17.866;2023-02-13T06:02:50;102074.75;;;2.55;79.77
19795;BME280;10057;59.402;17.866;2023-02-13T06:05:17;102080.88;;;2.54;79.91
19795;BME280;10057;59.402;17.866;2023-02-13T06:07:44;102076.47;;;2.53;80.13
19795;BME280;10057;59.402;17.866;2023-02-13T06:10:11;102065.09;;;2.51;80.09
19795;BME280;10057;59.402;17.866;2023-02-13T06:12:37;102062.47;;;2.51;79.87
19795;BME280;10057;59.402;17.866;2023-02-13T06:15:05;102072.91;;;2.48;80.09
19795;BME280;10057;59.402;17.866;2023-02-13T06:17:32;102083.38;;;2.48;80.25
19795;BME280;10057;59.402;17.866;2023-02-13T06:19:58;102097.34;;;2.47;80.22
19795;BME280;10057;59.402;17.866;2023-02-13T06:22:25;102089.50;;;2.48;80.37
19795;BME280;10057;59.402;17.866;2023-02-13T06:24:52;102100.84;;;2.49;80.37
19795;BME280;10057;59.402;17.866;2023-02-13T06:27:18;102100.91;;;2.52;79.89
19795;BME280;10057;59.402;17.866;2023-02-13T06:29:45;102105.28;;;2.51;79.90
19795;BME280;10057;59.402;17.866;2023-02-13T06:32:12;102105.31;;;2.54;80.05
19795;BME280;10057;59.402;17.866;2023-02-13T06:34:39;102096.66;;;2.58;80.26
19795;BME280;10057;59.402;17.866;2023-02-13T06:37:06;102094.09;;;2.60;80.00
19795;BME280;10057;59.402;17.866;2023-02-13T06:39:33;102088.84;;;2.61;80.14
19795;BME280;10057;59.402;17.866;2023-02-13T06:42:00;102089.72;;;2.62;79.58
19795;BME280;10057;59.402;17.866;2023-02-13T06:44:26;102088.00;;;2.63;80.14
19795;BME280;10057;59.402;17.866;2023-02-13T06:46:53;102109.81;;;2.63;79.59
19795;BME280;10057;59.402;17.866;2023-02-13T06:49:20;102098.47;;;2.61;79.58
19795;BME280;10057;59.402;17.866;2023-02-13T06:51:46;102098.41;;;2.59;79.81
19795;BME280;10057;59.402;17.866;2023-02-13T06:54:13;102093.16;;;2.56;80.03
19795;BME280;10057;59.402;17.866;2023-02-13T06:56:40;102100.03;;;2.53;79.90
19795;BME280;10057;59.402;17.866;2023-02-13T06:59:07;102104.41;;;2.51;80.14
19795;BME280;10057;59.402;17.866;2023-02-13T07:01:33;102100.84;;;2.49;79.87
19795;BME280;10057;59.402;17.866;2023-02-13T07:04:00;102099.09;;;2.48;80.31
19795;BME280;10057;59.402;17.866;2023-02-13T07:06:27;102098.22;;;2.47;80.09
19795;BME280;10057;59.402;17.866;2023-02-13T07:08:54;102094.72;;;2.48;79.96
19795;BME280;10057;59.402;17.866;2023-02-13T07:11:23;102093.91;;;2.51;79.87
19795;BME280;10057;59.402;17.866;2023-02-13T07:13:50;102088.66;;;2.51;80.25
19795;BME280;10057;59.402;17.866;2023-02-13T07:16:16;102088.69;;;2.52;80.02
19795;BME280;10057;59.402;17.866;2023-02-13T07:18:43;102092.19;;;2.53;79.92
19795;BME280;10057;59.402;17.866;2023-02-13T07:21:10;102104.41;;;2.51;79.95
19795;BME280;10057;59.402;17.866;2023-02-13T07:23:37;102097.41;;;2.53;79.77
19795;BME280;10057;59.402;17.866;2023-02-13T07:26:04;102092.19;;;2.53;79.89
19795;BME280;10057;59.402;17.866;2023-02-13T07:28:31;102084.31;;;2.51;79.72
19795;BME280;10057;59.402;17.866;2023-02-13T07:31:02;102086.91;;;2.50;80.02
19795;BME280;10057;59.402;17.866;2023-02-13T07:33:32;102089.53;;;2.50;80.25
19795;BME280;10057;59.402;17.866;2023-02-13T07:35:59;102092.97;;;2.47;79.91
19795;BME280;10057;59.402;17.866;2023-02-13T07:38:32;102083.38;;;2.48;80.08
19795;BME280;10057;59.402;17.866;2023-02-13T07:40:59;102086.00;;;2.48;79.90
19795;BME280;10057;59.402;17.866;2023-02-13T07:43:27;102091.25;;;2.49;80.17
19795;BME280;10057;59.402;17.866;2023-02-13T07:45:57;102083.44;;;2.51;80.25
19795;BME280;10057;59.402;17.866;2023-02-13T07:48:24;102091.28;;;2.51;79.98
19795;BME280;10057;59.402;17.866;2023-02-13T07:50:53;102102.63;;;2.50;80.20
19795;BME280;10057;59.402;17.866;2023-02-13T07:53:20;102090.41;;;2.50;80.07
19795;BME280;10057;59.402;17.866;2023-02-13T07:55:48;102090.44;;;2.52;80.32
19795;BME280;10057;59.402;17.866;2023-02-13T07:58:14;102092.19;;;2.53;80.08
19795;BME280;10057;59.402;17.866;2023-02-13T08:00:41;102100.97;;;2.55;80.15
19795;BME280;10057;59.402;17.866;2023-02-13T08:03:10;102101.88;;;2.57;79.86
19795;BME280;10057;59.402;17.866;2023-02-13T08:05:37;102096.66;;;2.58;79.96
19795;BME280;10057;59.402;17.866;2023-02-13T08:08:04;102107.13;;;2.58;80.02
19795;BME280;10057;59.402;17.866;2023-02-13T08:10:31;102101.97;;;2.63;80.20
19795;BME280;10057;59.402;17.866;2023-02-13T08:13:17;102112.50;;;2.66;79.97
19795;BME280;10057;59.402;17.866;2023-02-13T08:15:44;102126.59;;;2.71;79.66
19795;BME280;10057;59.402;17.866;2023-02-13T08:18:11;102111.78;;;2.75;80.01
19795;BME280;10057;59.402;17.866;2023-02-13T08:20:38;102129.31;;;2.79;80.06
19795;BME280;10057;59.402;17.866;2023-02-13T08:23:06;102131.13;;;2.83;79.87
19795;BME280;10057;59.402;17.866;2023-02-13T08:25:33;102140.81;;;2.87;79.94
19795;BME280;10057;59.402;17.866;2023-02-13T08:28:00;102147.03;;;2.91;79.93
19795;BME280;10057;59.402;17.866;2023-02-13T08:30:27;102160.19;;;2.95;79.90
19795;BME280;10057;59.402;17.866;2023-02-13T08:32:54;102158.50;;;2.99;79.77
19795;BME280;10057;59.402;17.866;2023-02-13T08:35:22;102167.31;;;3.04;80.00
19795;BME280;10057;59.402;17.866;2023-02-13T08:37:52;102166.53;;;3.08;79.60
19795;BME280;10057;59.402;17.866;2023-02-13T08:40:19;102160.47;;;3.14;79.91
19795;BME280;10057;59.402;17.866;2023-02-13T08:42:48;102171.94;;;3.19;79.67
19795;BME280;10057;59.402;17.866;2023-02-13T08:45:14;102172.88;;;3.24;79.64
19795;BME280;10057;59.402;17.866;2023-02-13T08:47:41;102171.19;;;3.27;79.44
19795;BME280;10057;59.402;17.866;2023-02-13T08:50:08;102170.38;;;3.31;79.33
19795;BME280;10057;59.402;17.866;2023-02-13T08:52:35;102189.72;;;3.37;79.10
19795;BME280;10057;59.402;17.866;2023-02-13T08:55:01;102195.00;;;3.40;79.29
19795;BME280;10057;59.402;17.866;2023-02-13T08:57:29;102190.75;;;3.48;78.89
19795;BME280;10057;59.402;17.866;2023-02-13T08:59:56;102196.09;;;3.54;78.83
19795;BME280;10057;59.402;17.866;2023-02-13T09:02:23;102190.94;;;3.60;78.80
19795;BME280;10057;59.402;17.866;2023-02-13T09:04:50;102198.00;;;3.66;78.49
19795;BME280;10057;59.402;17.866;2023-02-13T09:07:16;102187.59;;;3.72;78.10
19795;BME280;10057;59.402;17.866;2023-02-13T09:09:43;102179.81;;;3.76;78.15
19795;BME280;10057;59.402;17.866;2023-02-13T09:12:10;102180.72;;;3.82;77.79
19795;BME280;10057;59.402;17.866;2023-02-13T09:14:36;102182.56;;;3.87;77.67
19795;BME280;10057;59.402;17.866;2023-02-13T09:17:04;102184.38;;;3.91;77.38
19795;BME280;10057;59.402;17.866;2023-02-13T09:19:31;102182.69;;;3.98;77.15
19795;BME280;10057;59.402;17.866;2023-02-13T09:21:58;102180.13;;;4.01;77.19
19795;BME280;10057;59.402;17.866;2023-02-13T09:24:25;102174.03;;;4.07;77.07
19795;BME280;10057;59.402;17.866;2023-02-13T09:26:52;102179.41;;;4.14;77.23
19795;BME280;10057;59.402;17.866;2023-02-13T09:29:18;102183.84;;;4.20;77.22
19795;BME280;10057;59.402;17.866;2023-02-13T09:31:45;102184.81;;;4.28;76.89
19795;BME280;10057;59.402;17.866;2023-02-13T09:34:12;102173.53;;;4.35;76.96
19795;BME280;10057;59.402;17.866;2023-02-13T09:36:39;102171.81;;;4.39;76.69
19795;BME280;10057;59.402;17.866;2023-02-13T09:39:05;102181.53;;;4.46;76.98
19795;BME280;10057;59.402;17.866;2023-02-13T09:41:40;102168.44;;;4.52;77.31
19795;BME280;10057;59.402;17.866;2023-02-13T09:44:19;102176.41;;;4.60;76.52
19795;BME280;10057;59.402;17.866;2023-02-13T09:50:03;102172.94;;;4.64;76.91
19795;BME280;10057;59.402;17.866;2023-02-13T09:52:36;102177.38;;;4.69;76.28
19795;BME280;10057;59.402;17.866;2023-02-13T09:55:15;102172.13;;;4.69;75.90
19795;BME280;10057;59.402;17.866;2023-02-13T09:57:49;102177.41;;;4.72;75.93
19795;BME280;10057;59.402;17.866;2023-02-13T10:00:27;102183.56;;;4.73;75.97
19795;BME280;10057;59.402;17.866;2023-02-13T10:08:30;102154.59;;;4.68;75.06
19795;BME280;10057;59.402;17.866;2023-02-13T10:16:48;102191.47;;;4.76;75.30
19795;BME280;10057;59.402;17.866;2023-02-13T10:19:33;102195.00;;;4.80;74.67
19795;BME280;10057;59.402;17.866;2023-02-13T10:22:28;102184.50;;;4.80;74.20
19795;BME280;10057;59.402;17.866;2023-02-13T10:25:14;102188.00;;;4.79;73.89
19795;BME280;10057;59.402;17.866;2023-02-13T10:27:46;102183.66;;;4.84;74.23
19795;BME280;10057;59.402;17.866;2023-02-13T10:30:21;102200.34;;;4.87;74.31
19795;BME280;10057;59.402;17.866;2023-02-13T10:32:58;102192.47;;;4.90;73.79
19795;BME280;10057;59.402;17.866;2023-02-13T10:38:17;102203.91;;;4.94;72.82
19795;BME280;10057;59.402;17.866;2023-02-13T10:43:26;102203.97;;;5.00;73.08
19795;BME280;10057;59.402;17.866;2023-02-13T10:51:51;102207.56;;;5.11;72.79
19795;BME280;10057;59.402;17.866;2023-02-13T10:57:26;102209.38;;;5.18;72.70
19795;BME280;10057;59.402;17.866;2023-02-13T11:03:01;102206.78;;;5.21;72.16
19795;BME280;10057;59.402;17.866;2023-02-13T11:05:38;102214.69;;;5.25;72.06
19795;BME280;10057;59.402;17.866;2023-02-13T11:08:20;102218.22;;;5.30;71.95
19795;BME280;10057;59.402;17.866;2023-02-13T11:10:48;102216.50;;;5.32;71.77
19795;BME280;10057;59.402;17.866;2023-02-13T11:13:18;102214.78;;;5.34;71.54
19795;BME280;10057;59.402;17.866;2023-02-13T11:16:03;102224.47;;;5.38;71.83
19795;BME280;10057;59.402;17.866;2023-02-13T11:18:37;102245.53;;;5.42;71.54
19795;BME280;10057;59.402;17.866;2023-02-13T11:21:10;102239.47;;;5.48;71.57
19795;BME280;10057;59.402;17.866;2023-02-13T11:23:42;102239.47;;;5.51;70.89
19795;BME280;10057;59.402;17.866;2023-02-13T11:26:14;102233.34;;;5.54;70.86
19795;BME280;10057;59.402;17.866;2023-02-13T11:28:49;102224.59;;;5.56;71.19
19795;BME280;10057;59.402;17.866;2023-02-13T11:31:32;102232.50;;;5.59;70.73
19795;BME280;10057;59.402;17.866;2023-02-13T11:34:21;102234.25;;;5.60;70.76
19795;BME280;10057;59.402;17.866;2023-02-13T11:36:54;102223.75;;;5.63;70.88
19795;BME280;10057;59.402;17.866;2023-02-13T11:39:33;102232.53;;;5.62;70.80
19795;BME280;10057;59.402;17.866;2023-02-13T11:41:59;102237.81;;;5.67;70.31
19795;BME280;10057;59.402;17.866;2023-02-13T11:44:31;102239.59;;;5.69;69.74
19795;BME280;10057;59.402;17.866;2023-02-13T11:46:59;102249.31;;;5.75;70.21
19795;BME280;10057;59.402;17.866;2023-02-13T11:49:28;102246.66;;;5.77;69.79
19795;BME280;10057;59.402;17.866;2023-02-13T11:52:03;102252.84;;;5.80;70.09
19795;BME280;10057;59.402;17.866;2023-02-13T11:54:57;102255.50;;;5.83;69.68
19795;BME280;10057;59.402;17.866;2023-02-13T11:57:32;102260.78;;;5.85;69.41
19795;BME280;10057;59.402;17.866;2023-02-13T12:00:01;102250.25;;;5.86;69.81
19795;BME280;10057;59.402;17.866;2023-02-13T12:02:47;102252.88;;;5.88;69.49
19795;BME280;10057;59.402;17.866;2023-02-13T12:05:21;102268.69;;;5.88;69.46
19795;BME280;10057;59.402;17.866;2023-02-13T12:07:48;102261.66;;;5.87;69.23
19795;BME280;10057;59.402;17.866;2023-02-13T12:12:57;102265.19;;;5.89;68.97
19795;BME280;10057;59.402;17.866;2023-02-13T12:15:32;102263.50;;;5.92;69.14
19795;BME280;10057;59.402;17.866;2023-02-13T12:18:12;102260.00;;;5.95;68.97
19795;BME280;10057;59.402;17.866;2023-02-13T12:43:14;102300.44;;;6.05;67.86
19795;BME280;10057;59.402;17.866;2023-02-13T12:57:17;102288.16;;;6.04;67.62
19795;BME280;10057;59.402;17.866;2023-02-13T13:05:02;102299.63;;;6.09;67.46
19795;BME280;10057;59.402;17.866;2023-02-13T13:18:34;102315.53;;;6.26;66.58
19795;BME280;10057;59.402;17.866;2023-02-13T13:21:16;102308.50;;;6.28;66.41
19795;BME280;10057;59.402;17.866;2023-02-13T13:26:40;102323.47;;;6.33;66.70
19795;BME280;10057;59.402;17.866;2023-02-13T13:29:24;102312.06;;;6.36;66.71
19795;BME280;10057;59.402;17.866;2023-02-13T13:31:58;102318.22;;;6.38;66.68
19795;BME280;10057;59.402;17.866;2023-02-13T13:34:29;102325.25;;;6.42;66.34
19795;BME280;10057;59.402;17.866;2023-02-13T13:37:09;102326.13;;;6.41;66.32
19795;BME280;10057;59.402;17.866;2023-02-13T13:39:49;102327.00;;;6.41;66.19
19795;BME280;10057;59.402;17.866;2023-02-13T13:42:32;102317.34;;;6.42;66.45
19795;BME280;10057;59.402;17.866;2023-02-13T13:50:34;102319.13;;;6.43;65.63
19795;BME280;10057;59.402;17.866;2023-02-13T13:53:14;102319.13;;;6.43;65.90
19795;BME280;10057;59.402;17.866;2023-02-13T13:58:44;102326.16;;;6.44;65.89
19795;BME280;10057;59.402;17.866;2023-02-13T14:03:44;102336.72;;;6.47;65.54
19795;BME280;10057;59.402;17.866;2023-02-13T14:06:19;102335.88;;;6.50;65.54
19795;BME280;10057;59.402;17.866;2023-02-13T14:11:39;102333.25;;;6.54;65.52
19795;BME280;10057;59.402;17.866;2023-02-13T14:16:58;102332.34;;;6.55;65.90
19795;BME280;10057;59.402;17.866;2023-02-13T14:19:37;102340.28;;;6.54;65.66
19795;BME280;10057;59.402;17.866;2023-02-13T14:24:50;102342.03;;;6.53;65.68
19795;BME280;10057;59.402;17.866;2023-02-13T14:27:33;102344.66;;;6.53;65.70
19795;BME280;10057;59.402;17.866;2023-02-13T14:30:05;102339.41;;;6.53;65.79
19795;BME280;10057;59.402;17.866;2023-02-13T14:32:35;102347.31;;;6.53;65.70
19795;BME280;10057;59.402;17.866;2023-02-13T14:35:26;102340.25;;;6.52;65.83
19795;BME280;10057;59.402;17.866;2023-02-13T14:38:01;102348.19;;;6.54;66.15
19795;BME280;10057;59.402;17.866;2023-02-13T14:40:41;102343.78;;;6.54;66.37
19795;BME280;10057;59.402;17.866;2023-02-13T14:45:50;102339.38;;;6.50;66.00
19795;BME280;10057;59.402;17.866;2023-02-13T14:48:19;102343.78;;;6.50;66.05
19795;BME280;10057;59.402;17.866;2023-02-13T14:50:49;102344.63;;;6.47;66.26
19795;BME280;10057;59.402;17.866;2023-02-13T14:53:23;102343.72;;;6.45;65.98
19795;BME280;10057;59.402;17.866;2023-02-13T14:55:58;102346.38;;;6.44;66.47
19795;BME280;10057;59.402;17.866;2023-02-13T14:58:30;102356.00;;;6.41;65.97
19795;BME280;10057;59.402;17.866;2023-02-13T15:01:17;102346.34;;;6.37;66.33
19795;BME280;10057;59.402;17.866;2023-02-13T15:03:49;102356.88;;;6.37;66.04
19795;BME280;10057;59.402;17.866;2023-02-13T15:06:26;102360.41;;;6.36;66.04
19795;BME280;10057;59.402;17.866;2023-02-13T15:08:55;102356.88;;;6.33;66.00
19795;BME280;10057;59.402;17.866;2023-02-13T15:11:40;102356.84;;;6.31;65.77
19795;BME280;10057;59.402;17.866;2023-02-13T15:17:19;102355.91;;;6.25;66.08
19795;BME280;10057;59.402;17.866;2023-02-13T15:19:55;102357.66;;;6.20;65.94
19795;BME280;10057;59.402;17.866;2023-02-13T15:22:35;102355.88;;;6.18;66.08
19795;BME280;10057;59.402;17.866;2023-02-13T15:25:05;102356.75;;;6.17;66.37
19795;BME280;10057;59.402;17.866;2023-02-13T15:27:40;102359.34;;;6.14;66.07
19795;BME280;10057;59.402;17.866;2023-02-13T15:30:22;102371.66;;;6.12;66.01
19795;BME280;10057;59.402;17.866;2023-02-13T15:35:33;102368.06;;;6.04;66.45
19795;BME280;10057;59.402;17.866;2023-02-13T15:38:19;102368.94;;;5.99;65.99
19795;BME280;10057;59.402;17.866;2023-02-13T15:40:48;102369.75;;;5.93;66.58
19795;BME280;10057;59.402;17.866;2023-02-13T15:43:46;102366.16;;;5.88;66.89
19795;BME280;10057;59.402;17.866;2023-02-13T15:48:49;102374.00;;;5.80;66.92